createdAt,value
2023-05-14T00:00:12.627Z,63.90
2023-05-14T00:01:14.767Z,63.70
2023-05-14T00:02:17.130Z,63.50
2023-05-14T00:03:19.354Z,63.60
2023-05-14T00:04:23.663Z,63.90
2023-05-14T00:05:26.021Z,64.30
2023-05-14T00:06:28.284Z,64.50
2023-05-14T00:07:31.062Z,64.70
2023-05-14T00:08:34.805Z,64.80
2023-05-14T00:09:37.002Z,64.90
2023-05-14T00:10:39.165Z,65.00
2023-05-14T00:11:41.344Z,65.40
2023-05-14T00:12:43.490Z,65.90
2023-05-14T00:13:45.859Z,66.60
2023-05-14T00:14:48.126Z,67.60
2023-05-14T00:15:50.382Z,68.40
2023-05-14T00:16:52.545Z,69.10
2023-05-14T00:17:55.101Z,69.90
2023-05-14T00:18:57.370Z,70.50
2023-05-14T00:19:59.686Z,71.20
2023-05-14T00:21:01.872Z,71.50
2023-05-14T00:22:04.358Z,71.80
2023-05-14T00:23:06.620Z,72.70
2023-05-14T00:24:10.192Z,72.40
2023-05-14T00:25:12.421Z,72.50
2023-05-14T00:26:14.635Z,72.60
2023-05-14T00:27:16.785Z,72.60
2023-05-14T00:28:19.002Z,72.60
2023-05-14T00:29:21.158Z,72.50
2023-05-14T00:30:23.497Z,72.60
2023-05-14T00:31:25.855Z,72.50
2023-05-14T00:32:28.053Z,72.50
2023-05-14T00:33:30.240Z,72.10
2023-05-14T00:34:32.402Z,71.70
2023-05-14T00:35:35.912Z,71.30
2023-05-14T00:36:38.132Z,71.10
2023-05-14T00:37:40.398Z,71.10
2023-05-14T00:38:42.593Z,70.90
2023-05-14T00:39:46.207Z,70.70
2023-05-14T00:40:51.845Z,70.70
2023-05-14T00:41:54.117Z,70.70
2023-05-14T00:42:56.842Z,70.50
2023-05-14T00:43:59.195Z,70.40
2023-05-14T00:45:01.369Z,70.20
2023-05-14T00:46:03.980Z,70.30
2023-05-14T00:47:07.041Z,70.30
2023-05-14T00:48:09.518Z,70.10
2023-05-14T00:49:11.870Z,70.20
2023-05-14T00:50:16.189Z,70.20
2023-05-14T00:51:19.206Z,70.30
2023-05-14T00:52:22.175Z,70.30
2023-05-14T00:53:24.570Z,70.90
2023-05-14T00:54:28.242Z,70.60
2023-05-14T00:55:32.368Z,70.80
2023-05-14T00:56:35.538Z,70.90
2023-05-14T00:57:38.026Z,71.00
2023-05-14T00:58:40.195Z,71.10
2023-05-14T00:59:42.908Z,71.20
2023-05-14T01:00:45.197Z,71.30
2023-05-14T01:01:47.474Z,71.40
2023-05-14T01:02:49.710Z,71.30
2023-05-14T01:03:53.636Z,71.30
2023-05-14T01:04:56.162Z,71.20
2023-05-14T01:06:10.582Z,71.20
2023-05-14T01:07:20.459Z,71.00
2023-05-14T01:08:32.360Z,70.90
2023-05-14T01:09:42.952Z,71.00
2023-05-14T01:10:53.096Z,71.00
2023-05-14T01:12:01.171Z,71.80
2023-05-14T01:13:10.376Z,71.20
2023-05-14T01:14:21.714Z,71.40
2023-05-14T01:15:25.321Z,71.40
2023-05-14T01:16:29.724Z,71.20
2023-05-14T01:17:34.007Z,71.70
2023-05-14T01:18:36.756Z,72.10
2023-05-14T01:19:41.653Z,72.50
2023-05-14T01:20:44.617Z,72.90
2023-05-14T01:21:48.208Z,73.00
2023-05-14T01:22:50.667Z,73.20
2023-05-14T01:23:52.822Z,73.40
2023-05-14T01:24:55.069Z,73.80
2023-05-14T01:25:57.249Z,74.40
2023-05-14T01:27:07.418Z,75.20
2023-05-14T01:28:13.310Z,76.00
2023-05-14T01:29:20.936Z,76.30
2023-05-14T01:30:29.168Z,76.80
2023-05-14T01:32:44.893Z,77.40
2023-05-14T01:33:49.105Z,77.30
2023-05-14T01:34:52.459Z,77.40
2023-05-14T01:35:55.837Z,77.30
2023-05-14T01:37:00.704Z,77.40
2023-05-14T01:38:07.364Z,77.80
2023-05-14T01:39:10.731Z,78.10
2023-05-14T01:40:14.119Z,78.40
2023-05-14T01:41:18.205Z,78.20
2023-05-14T01:42:20.793Z,78.50
2023-05-14T01:43:23.857Z,77.50
2023-05-14T01:44:26.355Z,77.40
2023-05-14T01:45:28.476Z,77.10
2023-05-14T01:46:31.814Z,77.00
2023-05-14T01:47:34.608Z,76.90
2023-05-14T01:48:37.903Z,76.90
2023-05-14T01:49:40.065Z,76.80
2023-05-14T01:50:42.724Z,76.70
2023-05-14T01:51:44.958Z,76.70
2023-05-14T01:52:48.810Z,76.90
2023-05-14T01:53:51.334Z,77.20
2023-05-14T01:54:54.003Z,77.30
2023-05-14T01:55:56.225Z,77.30
2023-05-14T01:56:58.467Z,77.20
2023-05-14T01:58:00.864Z,77.30
2023-05-14T01:59:03.022Z,77.40
2023-05-14T02:00:07.693Z,77.50
2023-05-14T02:01:10.000Z,77.70
2023-05-14T02:02:12.177Z,77.70
2023-05-14T02:03:14.383Z,78.00
2023-05-14T02:04:16.611Z,78.10
2023-05-14T02:05:19.340Z,78.10
2023-05-14T02:06:21.539Z,78.40
2023-05-14T02:07:23.752Z,78.80
2023-05-14T02:08:27.551Z,79.20
2023-05-14T02:09:30.707Z,79.70
2023-05-14T02:10:32.856Z,80.10
2023-05-14T02:11:35.056Z,80.60
2023-05-14T02:12:37.523Z,81.20
2023-05-14T02:13:39.795Z,81.40
2023-05-14T02:14:42.241Z,81.60
2023-05-14T02:15:44.452Z,81.70
2023-05-14T02:16:46.640Z,81.70
2023-05-14T02:17:48.891Z,81.60
2023-05-14T02:18:51.209Z,81.60
2023-05-14T02:19:53.656Z,81.70
2023-05-14T02:20:55.903Z,81.70
2023-05-14T02:21:59.319Z,81.70
2023-05-14T02:23:01.512Z,81.90
2023-05-14T02:24:05.571Z,81.90
2023-05-14T02:25:09.211Z,81.90
2023-05-14T02:26:12.385Z,82.10
2023-05-14T02:27:14.533Z,82.10
2023-05-14T02:28:16.882Z,82.10
2023-05-14T02:29:19.122Z,82.20
2023-05-14T02:30:22.792Z,82.10
2023-05-14T02:31:25.553Z,82.20
2023-05-14T02:32:28.046Z,82.30
2023-05-14T02:33:30.390Z,82.40
2023-05-14T02:34:34.514Z,82.50
2023-05-14T02:35:37.514Z,82.60
2023-05-14T02:36:40.101Z,82.70
2023-05-14T02:37:42.298Z,82.60
2023-05-14T02:38:44.520Z,82.60
2023-05-14T02:39:49.158Z,82.70
2023-05-14T02:40:51.407Z,83.00
2023-05-14T02:41:53.628Z,83.00
2023-05-14T02:42:55.873Z,83.00
2023-05-14T02:43:58.008Z,83.00
2023-05-14T02:45:00.252Z,82.90
2023-05-14T02:46:02.438Z,82.90
2023-05-14T02:47:06.244Z,83.00
2023-05-14T02:48:08.697Z,83.00
2023-05-14T02:49:11.025Z,83.00
2023-05-14T02:50:13.272Z,83.10
2023-05-14T02:51:16.937Z,83.20
2023-05-14T02:52:19.141Z,83.40
2023-05-14T02:53:21.363Z,83.50
2023-05-14T02:54:23.510Z,83.70
2023-05-14T02:55:27.261Z,83.80
2023-05-14T02:56:29.402Z,84.00
2023-05-14T02:57:31.564Z,84.10
2023-05-14T02:58:33.812Z,84.00
2023-05-14T02:59:36.292Z,83.90
2023-05-14T03:00:38.858Z,83.90
2023-05-14T03:01:41.648Z,84.00
2023-05-14T03:02:44.823Z,84.30
2023-05-14T03:03:47.518Z,84.40
2023-05-14T03:04:50.657Z,84.30
2023-05-14T03:05:52.966Z,84.40
2023-05-14T03:06:55.240Z,84.40
2023-05-14T03:07:57.396Z,84.30
2023-05-14T03:08:59.714Z,84.10
2023-05-14T03:10:02.030Z,84.20
2023-05-14T03:11:06.953Z,84.10
2023-05-14T03:12:09.307Z,84.20
2023-05-14T03:13:11.646Z,84.10
2023-05-14T03:14:13.974Z,84.30
2023-05-14T03:15:16.220Z,84.30
2023-05-14T03:16:18.529Z,84.40
2023-05-14T03:17:20.875Z,84.40
2023-05-14T03:18:23.189Z,84.20
2023-05-14T03:19:25.925Z,84.10
2023-05-14T03:20:28.280Z,84.20
2023-05-14T03:21:31.382Z,84.20
2023-05-14T03:22:33.712Z,84.30
2023-05-14T03:23:36.075Z,84.30
2023-05-14T03:24:40.285Z,84.50
2023-05-14T03:25:42.558Z,84.70
2023-05-14T03:26:46.253Z,84.70
2023-05-14T03:27:48.448Z,84.80
2023-05-14T03:28:50.900Z,84.90
2023-05-14T03:29:53.065Z,84.80
2023-05-14T03:30:55.398Z,84.60
2023-05-14T03:31:57.913Z,84.40
2023-05-14T03:33:00.299Z,84.40
2023-05-14T03:34:02.704Z,84.50
2023-05-14T03:35:05.906Z,84.20
2023-05-14T03:36:08.419Z,84.20
2023-05-14T03:37:11.046Z,83.90
2023-05-14T03:38:13.297Z,84.00
2023-05-14T03:39:19.664Z,84.10
2023-05-14T03:40:22.084Z,84.10
2023-05-14T03:41:24.413Z,84.00
2023-05-14T03:42:27.988Z,83.90
2023-05-14T03:43:30.471Z,83.70
2023-05-14T03:44:32.672Z,83.90
2023-05-14T03:46:38.181Z,84.00
2023-05-14T03:47:40.496Z,83.90
2023-05-14T03:48:42.911Z,83.80
2023-05-14T03:49:45.145Z,83.60
2023-05-14T03:50:47.824Z,83.60
2023-05-14T03:51:50.049Z,83.50
2023-05-14T03:52:52.649Z,83.30
2023-05-14T03:53:55.011Z,83.40
2023-05-14T03:54:57.178Z,83.40
2023-05-14T03:55:59.572Z,83.30
2023-05-14T03:57:02.061Z,83.10
2023-05-14T03:58:13.813Z,83.00
2023-05-14T03:59:15.998Z,83.00
2023-05-14T04:00:18.620Z,82.90
2023-05-14T04:01:20.815Z,82.90
2023-05-14T04:02:23.572Z,82.80
2023-05-14T04:03:26.025Z,82.80
2023-05-14T04:04:28.439Z,83.00
2023-05-14T04:05:30.712Z,83.00
2023-05-14T04:06:33.533Z,82.70
2023-05-14T04:07:35.798Z,82.00
2023-05-14T04:08:37.947Z,81.30
2023-05-14T04:09:40.104Z,81.00
2023-05-14T04:10:43.695Z,80.60
2023-05-14T04:11:46.339Z,80.40
2023-05-14T04:12:48.557Z,80.00
2023-05-14T04:13:52.231Z,79.60
2023-05-14T04:14:54.405Z,79.30
2023-05-14T04:15:56.598Z,78.90
2023-05-14T04:17:00.281Z,78.40
2023-05-14T04:18:02.715Z,77.80
2023-05-14T04:19:05.844Z,77.20
2023-05-14T04:20:10.506Z,76.70
2023-05-14T04:21:13.109Z,76.30
2023-05-14T04:22:15.401Z,76.20
2023-05-14T04:23:17.600Z,76.20
2023-05-14T04:24:19.706Z,76.00
2023-05-14T04:25:22.068Z,75.80
2023-05-14T04:26:24.323Z,75.50
2023-05-14T04:27:27.338Z,75.20
2023-05-14T04:28:29.510Z,74.90
2023-05-14T04:29:33.199Z,74.60
2023-05-14T04:30:35.665Z,74.20
2023-05-14T04:31:38.006Z,74.00
2023-05-14T04:32:40.910Z,73.40
2023-05-14T04:33:43.137Z,73.10
2023-05-14T04:34:46.892Z,72.70
2023-05-14T04:35:49.133Z,72.40
2023-05-14T04:36:52.165Z,71.90
2023-05-14T04:37:54.412Z,71.30
2023-05-14T04:38:57.011Z,70.70
2023-05-14T04:39:59.223Z,70.40
2023-05-14T04:41:01.393Z,70.10
2023-05-14T04:42:03.902Z,69.70
2023-05-14T04:43:06.270Z,69.70
2023-05-14T04:44:09.123Z,69.40
2023-05-14T04:45:14.147Z,68.80
2023-05-14T04:46:16.408Z,68.40
2023-05-14T04:47:18.756Z,68.30
2023-05-14T04:48:21.058Z,68.30
2023-05-14T04:49:23.247Z,68.20
2023-05-14T04:50:25.933Z,68.10
2023-05-14T04:51:28.645Z,67.80
2023-05-14T04:52:30.813Z,67.70
2023-05-14T04:53:33.287Z,67.60
2023-05-14T04:54:35.475Z,67.30
2023-05-14T04:55:37.912Z,67.30
2023-05-14T04:56:40.153Z,67.40
2023-05-14T04:57:42.672Z,67.30
2023-05-14T04:58:45.116Z,66.90
2023-05-14T04:59:47.405Z,66.50
2023-05-14T05:00:51.034Z,66.20
2023-05-14T05:01:53.224Z,66.00
2023-05-14T05:02:55.732Z,65.60
2023-05-14T05:03:58.271Z,64.90
2023-05-14T05:05:00.727Z,63.90
2023-05-14T05:06:02.934Z,63.30
2023-05-14T05:07:06.394Z,62.90
2023-05-14T05:08:08.662Z,62.40
2023-05-14T05:09:10.935Z,62.30
2023-05-14T05:10:13.864Z,62.20
2023-05-14T05:11:16.322Z,61.80
2023-05-14T05:12:18.472Z,61.70
2023-05-14T05:13:20.617Z,61.20
2023-05-14T05:14:22.828Z,60.20
2023-05-14T05:15:26.587Z,59.80
2023-05-14T05:16:30.648Z,59.40
2023-05-14T05:17:32.865Z,59.40
2023-05-14T05:18:35.144Z,59.30
2023-05-14T05:19:43.753Z,59.10
2023-05-14T05:20:46.592Z,59.00
2023-05-14T05:21:48.860Z,58.90
2023-05-14T05:22:51.039Z,58.90
2023-05-14T05:23:53.402Z,58.70
2023-05-14T05:24:55.562Z,58.60
2023-05-14T05:25:57.728Z,58.50
2023-05-14T05:26:59.948Z,58.40
2023-05-14T05:28:02.204Z,58.10
2023-05-14T05:29:04.792Z,57.80
2023-05-14T05:30:08.431Z,57.50
2023-05-14T05:31:10.829Z,57.30
2023-05-14T05:32:14.496Z,56.90
2023-05-14T05:33:16.754Z,56.60
2023-05-14T05:34:20.189Z,56.40
2023-05-14T05:35:22.420Z,56.10
2023-05-14T05:36:24.684Z,55.80
2023-05-14T05:37:26.920Z,55.50
2023-05-14T05:38:29.110Z,55.20
2023-05-14T05:39:34.924Z,55.00
2023-05-14T05:40:37.431Z,54.80
2023-05-14T05:41:39.675Z,54.60
2023-05-14T05:42:41.985Z,54.50
2023-05-14T05:43:44.205Z,54.10
2023-05-14T05:44:46.406Z,53.90
2023-05-14T05:45:48.612Z,53.80
2023-05-14T05:46:51.245Z,53.80
2023-05-14T05:47:54.960Z,53.60
2023-05-14T05:48:57.215Z,53.40
2023-05-14T05:49:59.553Z,53.30
2023-05-14T05:51:01.832Z,53.30
2023-05-14T05:52:04.383Z,53.30
2023-05-14T05:53:06.572Z,53.30
2023-05-14T05:54:08.983Z,52.60
2023-05-14T05:55:11.215Z,52.00
2023-05-14T05:56:13.383Z,51.70
2023-05-14T05:57:15.760Z,51.60
2023-05-14T05:58:18.226Z,51.50
2023-05-14T05:59:20.563Z,51.70
2023-05-14T06:00:25.870Z,51.80
2023-05-14T06:01:28.562Z,51.50
2023-05-14T06:02:30.967Z,51.20
2023-05-14T06:03:34.581Z,51.10
2023-05-14T06:04:36.753Z,51.10
2023-05-14T06:05:38.974Z,51.00
2023-05-14T06:06:41.264Z,50.80
2023-05-14T06:07:43.496Z,50.50
2023-05-14T06:08:45.650Z,50.20
2023-05-14T06:09:47.824Z,50.10
2023-05-14T06:10:50.053Z,50.00
2023-05-14T06:11:52.268Z,49.90
2023-05-14T06:12:54.688Z,49.70
2023-05-14T06:13:56.942Z,49.70
2023-05-14T06:14:59.185Z,49.80
2023-05-14T06:16:01.449Z,49.60
2023-05-14T06:17:03.756Z,49.40
2023-05-14T06:18:06.440Z,49.20
2023-05-14T06:19:10.264Z,48.80
2023-05-14T06:20:13.132Z,48.60
2023-05-14T06:21:15.314Z,48.50
2023-05-14T06:22:17.553Z,48.50
2023-05-14T06:23:19.732Z,48.30
2023-05-14T06:24:21.849Z,47.90
2023-05-14T06:25:24.095Z,47.80
2023-05-14T06:26:27.074Z,47.90
2023-05-14T06:27:30.365Z,47.70
2023-05-14T06:28:32.518Z,47.60
2023-05-14T06:29:34.778Z,47.40
2023-05-14T06:30:37.133Z,47.30
2023-05-14T06:31:39.380Z,47.20
2023-05-14T06:32:41.689Z,46.90
2023-05-14T06:33:43.980Z,46.90
2023-05-14T06:34:47.704Z,46.60
2023-05-14T06:35:51.259Z,46.50
2023-05-14T06:36:53.541Z,46.20
2023-05-14T06:37:55.735Z,46.00
2023-05-14T06:38:57.991Z,45.80
2023-05-14T06:40:00.609Z,45.70
2023-05-14T06:41:02.775Z,45.60
2023-05-14T06:42:05.421Z,45.40
2023-05-14T06:43:07.552Z,45.30
2023-05-14T06:44:09.732Z,45.20
2023-05-14T06:45:12.275Z,45.10
2023-05-14T06:46:14.414Z,45.00
2023-05-14T06:47:16.608Z,44.80
2023-05-14T06:48:19.646Z,44.70
2023-05-14T06:49:21.911Z,44.50
2023-05-14T06:50:25.763Z,44.20
2023-05-14T06:51:28.095Z,44.30
2023-05-14T06:52:30.218Z,44.40
2023-05-14T06:53:32.410Z,44.50
2023-05-14T06:54:34.578Z,44.30
2023-05-14T06:55:36.845Z,44.00
2023-05-14T06:56:39.044Z,44.00
2023-05-14T06:57:41.195Z,43.90
2023-05-14T06:58:43.352Z,43.90
2023-05-14T06:59:45.545Z,43.90
2023-05-14T07:00:48.418Z,44.00
2023-05-14T07:01:50.683Z,44.20
2023-05-14T07:02:52.908Z,44.20
2023-05-14T07:03:55.467Z,43.90
2023-05-14T07:04:57.622Z,43.60
2023-05-14T07:06:01.188Z,43.70
2023-05-14T07:07:03.623Z,44.00
2023-05-14T07:08:06.017Z,44.10
2023-05-14T07:09:08.146Z,43.90
2023-05-14T07:10:10.993Z,43.40
2023-05-14T07:11:13.860Z,42.60
2023-05-14T07:12:15.991Z,42.30
2023-05-14T07:13:18.240Z,42.10
2023-05-14T07:14:20.668Z,42.30
2023-05-14T07:15:22.793Z,42.40
2023-05-14T07:16:25.168Z,42.50
2023-05-14T07:17:27.731Z,42.40
2023-05-14T07:18:30.148Z,42.20
2023-05-14T07:19:32.400Z,42.20
2023-05-14T07:20:34.594Z,42.40
2023-05-14T07:21:38.074Z,42.40
2023-05-14T07:22:40.333Z,42.20
2023-05-14T07:23:42.671Z,42.20
2023-05-14T07:24:44.814Z,42.10
2023-05-14T07:25:46.948Z,42.10
2023-05-14T07:26:49.229Z,42.10
2023-05-14T07:27:51.376Z,41.90
2023-05-14T07:28:54.799Z,41.50
2023-05-14T07:29:57.049Z,41.20
2023-05-14T07:30:59.609Z,41.00
2023-05-14T07:32:04.671Z,41.00
2023-05-14T07:33:07.035Z,41.30
2023-05-14T07:34:11.024Z,41.70
2023-05-14T07:35:13.315Z,41.60
2023-05-14T07:36:15.654Z,41.40
2023-05-14T07:37:19.806Z,41.50
2023-05-14T07:38:22.834Z,41.40
2023-05-14T07:39:25.074Z,41.20
2023-05-14T07:40:27.590Z,41.10
2023-05-14T07:41:29.936Z,40.90
2023-05-14T07:42:36.554Z,41.20
2023-05-14T07:43:40.575Z,41.30
2023-05-14T07:44:42.860Z,40.80
2023-05-14T07:45:45.650Z,40.40
2023-05-14T07:46:47.811Z,40.20
2023-05-14T07:47:53.080Z,40.50
2023-05-14T07:48:55.947Z,40.50
2023-05-14T07:49:58.281Z,40.80
2023-05-14T07:51:00.780Z,41.00
2023-05-14T07:52:03.372Z,41.10
2023-05-14T07:53:06.942Z,40.80
2023-05-14T07:54:09.144Z,40.60
2023-05-14T07:55:12.296Z,40.30
2023-05-14T07:56:14.983Z,40.10
2023-05-14T07:57:17.229Z,39.80
2023-05-14T07:58:19.413Z,39.80
2023-05-14T07:59:22.143Z,39.50
2023-05-14T08:00:24.508Z,39.10
2023-05-14T08:01:27.079Z,38.90
2023-05-14T08:02:29.673Z,39.00
2023-05-14T08:03:32.057Z,39.00
2023-05-14T08:04:36.165Z,38.60
2023-05-14T08:05:38.677Z,38.60
2023-05-14T08:06:40.859Z,38.80
2023-05-14T08:07:43.481Z,38.60
2023-05-14T08:08:47.167Z,38.40
2023-05-14T08:09:49.374Z,38.30
2023-05-14T08:10:51.712Z,38.70
2023-05-14T08:11:54.023Z,38.70
2023-05-14T08:12:56.249Z,38.40
2023-05-14T08:13:58.432Z,38.20
2023-05-14T08:15:00.637Z,38.40
2023-05-14T08:16:02.922Z,38.00
2023-05-14T08:17:05.548Z,37.50
2023-05-14T08:18:10.217Z,37.70
2023-05-14T08:19:13.248Z,37.60
2023-05-14T08:20:15.883Z,37.40
2023-05-14T08:21:18.019Z,37.60
2023-05-14T08:22:20.733Z,37.40
2023-05-14T08:23:23.366Z,37.10
2023-05-14T08:24:26.983Z,37.20
2023-05-14T08:25:30.183Z,37.70
2023-05-14T08:26:32.549Z,38.00
2023-05-14T08:27:34.767Z,37.80
2023-05-14T08:28:36.961Z,37.80
2023-05-14T08:29:39.215Z,38.20
2023-05-14T08:30:43.457Z,37.90
2023-05-14T08:31:45.690Z,37.80
2023-05-14T08:32:48.320Z,37.90
2023-05-14T08:33:50.757Z,38.00
2023-05-14T08:34:53.038Z,38.00
2023-05-14T08:35:56.285Z,37.80
2023-05-14T08:36:59.594Z,37.70
2023-05-14T08:38:01.736Z,37.60
2023-05-14T08:39:03.989Z,37.60
2023-05-14T08:40:09.482Z,37.50
2023-05-14T08:41:15.075Z,37.40
2023-05-14T08:42:21.101Z,37.00
2023-05-14T08:43:27.263Z,36.70
2023-05-14T08:44:36.442Z,36.80
2023-05-14T08:45:40.525Z,37.20
2023-05-14T08:46:42.826Z,37.40
2023-05-14T08:47:49.712Z,37.10
2023-05-14T08:48:58.509Z,36.90
2023-05-14T08:50:05.771Z,37.30
2023-05-14T08:51:09.106Z,37.30
2023-05-14T08:52:11.699Z,37.00
2023-05-14T08:53:14.208Z,37.00
2023-05-14T08:54:17.859Z,37.40
2023-05-14T08:55:22.572Z,37.40
2023-05-14T08:56:25.982Z,37.10
2023-05-14T08:57:30.229Z,36.90
2023-05-14T08:58:32.372Z,36.70
2023-05-14T08:59:34.561Z,36.40
2023-05-14T09:00:36.864Z,36.20
2023-05-14T09:01:42.700Z,36.20
2023-05-14T09:02:46.694Z,36.00
2023-05-14T09:03:50.385Z,36.10
2023-05-14T09:04:55.934Z,35.90
2023-05-14T09:06:00.246Z,35.80
2023-05-14T09:07:02.956Z,36.00
2023-05-14T09:08:05.504Z,36.10
2023-05-14T09:09:07.824Z,36.00
2023-05-14T09:10:10.490Z,35.90
2023-05-14T09:11:14.234Z,35.80
2023-05-14T09:12:16.817Z,35.50
2023-05-14T09:13:19.024Z,35.20
2023-05-14T09:14:22.506Z,35.20
2023-05-14T09:15:27.827Z,35.60
2023-05-14T09:16:31.023Z,35.50
2023-05-14T09:17:33.811Z,35.40
2023-05-14T09:18:36.933Z,35.70
2023-05-14T09:19:40.487Z,36.00
2023-05-14T09:20:43.034Z,35.80
2023-05-14T09:21:46.208Z,35.70
2023-05-14T09:22:48.482Z,35.90
2023-05-14T09:23:55.562Z,36.00
2023-05-14T09:25:05.721Z,35.80
2023-05-14T09:26:08.154Z,35.60
2023-05-14T09:27:19.601Z,35.60
2023-05-14T09:28:24.504Z,35.50
2023-05-14T09:29:27.468Z,35.50
2023-05-14T09:30:30.111Z,35.50
2023-05-14T09:31:33.917Z,35.80
2023-05-14T09:32:37.353Z,35.70
2023-05-14T09:33:39.676Z,35.60
2023-05-14T09:34:42.420Z,35.60
2023-05-14T09:35:44.682Z,35.50
2023-05-14T09:36:47.354Z,35.70
2023-05-14T09:37:51.101Z,35.60
2023-05-14T09:38:53.401Z,35.50
2023-05-14T09:39:55.610Z,35.50
2023-05-14T09:40:58.011Z,35.30
2023-05-14T09:42:01.230Z,34.90
2023-05-14T09:43:05.047Z,35.10
2023-05-14T09:44:07.377Z,34.90
2023-05-14T09:45:10.722Z,34.50
2023-05-14T09:46:12.842Z,34.60
2023-05-14T09:47:16.068Z,34.50
2023-05-14T09:48:18.484Z,34.70
2023-05-14T09:49:21.150Z,34.80
2023-05-14T09:50:23.508Z,34.60
2023-05-14T09:51:28.802Z,34.90
2023-05-14T09:52:31.161Z,35.00
2023-05-14T09:53:34.473Z,34.80
2023-05-14T09:54:38.124Z,34.80
2023-05-14T09:55:40.770Z,34.70
2023-05-14T09:56:44.003Z,34.40
2023-05-14T09:57:46.282Z,34.50
2023-05-14T09:58:50.005Z,34.50
2023-05-14T09:59:52.293Z,35.00
2023-05-14T10:00:56.918Z,34.90
2023-05-14T10:01:59.719Z,34.90
2023-05-14T10:03:06.166Z,34.90
2023-05-14T10:04:09.667Z,34.40
2023-05-14T10:05:13.425Z,34.10
2023-05-14T10:06:19.232Z,33.90
2023-05-14T10:07:26.242Z,33.70
2023-05-14T10:08:33.751Z,33.60
2023-05-14T10:09:38.478Z,33.50
2023-05-14T10:10:40.873Z,33.50
2023-05-14T10:11:45.399Z,33.50
2023-05-14T10:12:52.506Z,33.10
2023-05-14T10:14:02.640Z,33.00
2023-05-14T10:15:12.949Z,32.80
2023-05-14T10:16:22.000Z,32.90
2023-05-14T10:17:27.145Z,32.60
2023-05-14T10:18:33.077Z,32.20
2023-05-14T10:19:36.918Z,31.90
2023-05-14T10:20:41.560Z,32.30
2023-05-14T10:21:48.709Z,32.40
2023-05-14T10:22:51.308Z,32.20
2023-05-14T10:23:53.479Z,31.80
2023-05-14T10:24:56.478Z,32.00
2023-05-14T10:25:59.650Z,32.00
2023-05-14T10:27:02.166Z,31.90
2023-05-14T10:28:06.076Z,31.40
2023-05-14T10:29:10.344Z,31.40
2023-05-14T10:30:13.130Z,31.50
2023-05-14T10:31:15.813Z,31.30
2023-05-14T10:32:21.000Z,31.10
2023-05-14T10:33:23.145Z,31.10
2023-05-14T10:34:33.422Z,30.60
2023-05-14T10:35:58.236Z,30.50
2023-05-14T10:37:01.821Z,30.70
2023-05-14T10:38:08.511Z,31.10
2023-05-14T10:39:10.672Z,31.10
2023-05-14T10:40:14.024Z,31.10
2023-05-14T10:41:18.097Z,31.30
2023-05-14T10:42:22.686Z,31.40
2023-05-14T10:43:28.318Z,31.40
2023-05-14T10:44:35.147Z,31.70
2023-05-14T10:45:37.378Z,31.60
2023-05-14T10:46:40.158Z,30.80
2023-05-14T10:47:44.431Z,30.60
2023-05-14T10:48:46.783Z,30.70
2023-05-14T10:49:49.563Z,30.70
2023-05-14T10:50:52.676Z,30.90
2023-05-14T10:51:54.961Z,30.80
2023-05-14T10:52:57.648Z,30.70
2023-05-14T10:54:01.789Z,31.00
2023-05-14T10:55:08.700Z,30.90
2023-05-14T10:56:12.887Z,30.70
2023-05-14T10:57:15.032Z,30.70
2023-05-14T10:58:18.050Z,30.50
2023-05-14T10:59:20.231Z,31.00
2023-05-14T11:00:27.812Z,30.80
2023-05-14T11:01:29.939Z,30.30
2023-05-14T11:02:34.725Z,30.30
2023-05-14T11:03:42.079Z,30.40
2023-05-14T11:04:55.680Z,31.30
2023-05-14T11:05:58.011Z,30.70
2023-05-14T11:07:01.390Z,30.40
2023-05-14T11:08:08.033Z,30.60
2023-05-14T11:09:10.802Z,30.60
2023-05-14T11:10:14.738Z,30.20
2023-05-14T11:11:19.258Z,30.10
2023-05-14T11:12:21.806Z,30.30
2023-05-14T11:13:26.127Z,30.00
2023-05-14T11:14:28.715Z,29.70
2023-05-14T11:15:32.517Z,29.90
2023-05-14T11:16:34.917Z,30.00
2023-05-14T11:17:38.568Z,29.80
2023-05-14T11:18:42.041Z,29.90
2023-05-14T11:19:45.911Z,30.00
2023-05-14T11:20:48.240Z,30.00
2023-05-14T11:21:51.020Z,29.90
2023-05-14T11:22:53.245Z,29.80
2023-05-14T11:23:55.636Z,30.00
2023-05-14T11:24:57.872Z,30.00
2023-05-14T11:26:00.042Z,30.00
2023-05-14T11:27:02.266Z,29.70
2023-05-14T11:28:05.121Z,29.50
2023-05-14T11:29:07.315Z,29.60
2023-05-14T11:30:14.373Z,29.70
2023-05-14T11:31:18.175Z,29.60
2023-05-14T11:32:20.664Z,29.80
2023-05-14T11:33:22.825Z,29.70
2023-05-14T11:34:25.274Z,29.80
2023-05-14T11:35:27.783Z,29.80
2023-05-14T11:36:29.934Z,29.40
2023-05-14T11:37:32.032Z,29.00
2023-05-14T11:38:34.172Z,29.10
2023-05-14T11:39:37.696Z,28.90
2023-05-14T11:40:39.853Z,28.80
2023-05-14T11:41:44.803Z,28.80
2023-05-14T11:42:47.047Z,28.80
2023-05-14T11:43:49.455Z,28.80
2023-05-14T11:44:52.618Z,29.00
2023-05-14T11:45:55.705Z,28.80
2023-05-14T11:47:01.413Z,28.90
2023-05-14T11:48:11.918Z,29.00
2023-05-14T11:49:14.246Z,28.70
2023-05-14T11:50:17.275Z,28.50
2023-05-14T11:51:21.431Z,28.40
2023-05-14T11:52:23.774Z,28.50
2023-05-14T11:53:27.585Z,28.10
2023-05-14T11:54:31.951Z,28.30
2023-05-14T11:55:35.285Z,28.40
2023-05-14T11:56:37.469Z,28.50
2023-05-14T11:57:39.862Z,28.40
2023-05-14T11:58:47.530Z,28.10
2023-05-14T11:59:55.026Z,28.20
2023-05-14T12:00:57.301Z,28.50
2023-05-14T12:02:03.697Z,28.50
2023-05-14T12:03:06.681Z,28.70
2023-05-14T12:04:09.636Z,28.80
2023-05-14T12:05:13.646Z,28.70
2023-05-14T12:06:15.942Z,29.00
2023-05-14T12:07:18.455Z,28.80
2023-05-14T12:08:21.460Z,29.10
2023-05-14T12:09:24.064Z,29.10
2023-05-14T12:10:26.442Z,29.00
2023-05-14T12:11:31.911Z,28.70
2023-05-14T12:12:36.590Z,28.80
2023-05-14T12:13:40.704Z,28.90
2023-05-14T12:14:43.666Z,29.10
2023-05-14T12:15:47.139Z,29.00
2023-05-14T12:16:50.459Z,29.10
2023-05-14T12:17:54.127Z,29.10
2023-05-14T12:19:00.997Z,29.10
2023-05-14T12:20:04.302Z,29.10
2023-05-14T12:21:09.788Z,28.90
2023-05-14T12:22:14.298Z,28.50
2023-05-14T12:23:16.616Z,28.60
2023-05-14T12:24:22.312Z,28.50
2023-05-14T12:25:26.096Z,28.30
2023-05-14T12:26:28.822Z,28.30
2023-05-14T12:27:31.134Z,28.60
2023-05-14T12:28:36.061Z,28.50
2023-05-14T12:29:40.100Z,28.80
2023-05-14T12:30:42.241Z,29.00
2023-05-14T12:31:48.190Z,28.70
2023-05-14T12:32:53.114Z,27.90
2023-05-14T12:33:57.330Z,27.00
2023-05-14T12:34:59.526Z,26.90
2023-05-14T12:36:17.571Z,26.60
2023-05-14T12:37:23.098Z,26.00
2023-05-14T12:38:25.579Z,25.80
2023-05-14T12:39:27.933Z,25.40
2023-05-14T12:40:30.662Z,25.00
2023-05-14T12:41:34.156Z,24.70
2023-05-14T12:42:36.562Z,24.20
2023-05-14T12:43:39.850Z,24.10
2023-05-14T12:44:42.023Z,24.30
2023-05-14T12:45:44.296Z,23.80
2023-05-14T12:46:46.542Z,23.80
2023-05-14T12:47:48.802Z,23.50
2023-05-14T12:48:53.144Z,23.30
2023-05-14T12:49:57.255Z,23.30
2023-05-14T12:50:59.412Z,23.10
2023-05-14T12:52:19.432Z,23.70
2023-05-14T12:53:23.616Z,23.90
2023-05-14T12:54:25.858Z,23.30
2023-05-14T12:55:28.098Z,22.80
2023-05-14T12:56:32.088Z,22.50
2023-05-14T12:57:35.587Z,22.20
2023-05-14T12:58:38.177Z,22.50
2023-05-14T12:59:41.179Z,22.50
2023-05-14T13:00:43.377Z,22.60
2023-05-14T13:01:45.761Z,22.60
2023-05-14T13:02:48.570Z,22.90
2023-05-14T13:03:51.306Z,23.30
2023-05-14T13:04:53.477Z,23.40
2023-05-14T13:05:57.352Z,22.70
2023-05-14T13:06:59.715Z,22.50
2023-05-14T13:08:03.966Z,22.60
2023-05-14T13:09:06.590Z,22.50
2023-05-14T13:10:09.986Z,22.70
2023-05-14T13:11:13.397Z,22.70
2023-05-14T13:12:15.669Z,23.20
2023-05-14T13:13:17.749Z,23.20
2023-05-14T13:14:20.370Z,23.60
2023-05-14T13:15:23.091Z,24.00
2023-05-14T13:16:25.875Z,24.00
2023-05-14T13:17:28.227Z,23.80
2023-05-14T13:18:30.554Z,23.90
2023-05-14T13:19:33.233Z,23.80
2023-05-14T13:20:35.425Z,23.70
2023-05-14T13:21:39.077Z,24.00
2023-05-14T13:22:43.128Z,24.10
2023-05-14T13:23:45.633Z,24.20
2023-05-14T13:24:47.900Z,24.20
2023-05-14T13:25:50.186Z,24.60
2023-05-14T13:26:52.369Z,24.40
2023-05-14T13:27:55.057Z,24.40
2023-05-14T13:28:57.152Z,24.20
2023-05-14T13:29:59.642Z,23.80
2023-05-14T13:31:07.405Z,23.50
2023-05-14T13:32:09.639Z,23.10
2023-05-14T13:33:11.990Z,23.30
2023-05-14T13:34:14.797Z,23.20
2023-05-14T13:35:17.600Z,23.00
2023-05-14T13:36:20.007Z,23.20